Time;durP1;ratioP1;P1;durP2;ratioP2;P2;SDS_P1;SDS_P2;PMS_P1;PMS_P2;Temp;Humidity;BMP_temperature;BMP_pressure;BME280_temperature;BME280_humidity;BME280_pressure;Samples;Min_cycle;Max_cycle;Signal;HPM_P1;HPM_P2
2022/04/15 00:00:06;;;;;;;;;;;23.20;38.00;;;;;;688699;28;1309;-86
2022/04/15 00:00:29;;;;;;;;;;;23.20;39.10;;;;;;688415;28;1895;-87
2022/04/15 00:00:56;;;;;;;;;;;23.20;38.70;;;;;;689034;28;787;-88
2022/04/15 00:01:20;;;;;;;;;;;23.20;39.10;;;;;;687603;28;1289;-85
2022/04/15 00:01:48;;;;;;;;;;;23.20;39.80;;;;;;688984;28;768;-87
2022/04/15 00:02:09;;;;;;;;;;;23.20;35.80;;;;;;688809;28;1314;-87
2022/04/15 00:02:32;;;;;;;;;;;23.20;35.50;;;;;;691718;28;1149;-84
2022/04/15 00:02:56;;;;;;;;;;;23.20;35.20;;;;;;691678;28;839;-86
2022/04/15 00:03:16;;;;;;;;;;;23.20;34.80;;;;;;691377;28;1102;-89
2022/04/15 00:03:37;;;;;;;;;;;23.20;36.30;;;;;;691684;28;838;-87
2022/04/15 00:03:58;;;;;;;;;;;23.20;35.80;;;;;;691676;28;1102;-86
2022/04/15 00:04:18;;;;;;;;;;;23.20;36.00;;;;;;691618;28;826;-87
2022/04/15 00:04:39;;;;;;;;;;;23.20;35.30;;;;;;688770;28;1209;-91
2022/04/15 00:04:59;;;;;;;;;;;23.20;34.90;;;;;;686415;28;1334;-86
2022/04/15 00:05:34;;;;;;;;;;;23.20;36.30;;;;;;688886;28;804;-84
2022/04/15 00:05:55;;;;;;;;;;;23.20;35.40;;;;;;689037;28;890;-84
2022/04/15 00:06:16;;;;;;;;;;;23.20;34.20;;;;;;688664;28;1070;-84
2022/04/15 00:06:36;;;;;;;;;;;23.20;33.80;;;;;;691056;28;1450;-85
2022/04/15 00:06:58;;;;;;;;;;;23.20;34.60;;;;;;693927;28;886;-89
2022/04/15 00:07:19;;;;;;;;;;;22.90;34.80;;;;;;691525;28;1402;-86
2022/04/15 00:07:40;;;;;;;;;;;23.20;34.70;;;;;;691529;28;874;-88
2022/04/15 00:08:01;;;;;;;;;;;23.20;34.00;;;;;;691622;28;830;-84
2022/04/15 00:08:21;;;;;;;;;;;23.20;33.30;;;;;;691662;28;792;-86
2022/04/15 00:08:42;;;;;;;;;;;23.20;33.40;;;;;;691595;28;851;-85
2022/04/15 00:09:03;;;;;;;;;;;23.20;35.60;;;;;;691626;28;954;-87
2022/04/15 00:09:23;;;;;;;;;;;23.20;39.40;;;;;;691488;28;1350;-87
2022/04/15 00:09:44;;;;;;;;;;;23.20;44.90;;;;;;691568;28;1074;-87
2022/04/15 00:10:05;;;;;;;;;;;23.20;49.80;;;;;;689029;28;1197;-87
2022/04/15 00:10:28;;;;;;;;;;;23.20;54.20;;;;;;688800;28;1360;-88
2022/04/15 00:10:48;;;;;;;;;;;23.20;53.50;;;;;;688880;28;1688;-88
2022/04/15 00:11:09;;;;;;;;;;;23.20;51.10;;;;;;689577;28;1205;-89
2022/04/15 00:11:31;;;;;;;;;;;23.20;52.10;;;;;;691661;28;1260;-88
2022/04/15 00:11:53;;;;;;;;;;;23.20;53.40;;;;;;688809;28;1119;-90
2022/04/15 00:12:18;;;;;;;;;;;23.20;50.40;;;;;;688877;28;1189;-88
2022/04/15 00:12:39;;;;;;;;;;;23.20;50.60;;;;;;688914;28;862;-89
2022/04/15 00:13:00;;;;;;;;;;;23.20;48.20;;;;;;686265;28;1202;-88
2022/04/15 00:13:24;;;;;;;;;;;23.20;46.80;;;;;;686132;28;1242;-88
2022/04/15 00:13:45;;;;;;;;;;;19.70;45.50;;;;;;688053;28;1226;-90
2022/04/15 00:14:06;;;;;;;;;;;23.20;49.80;;;;;;687909;28;1332;-88
2022/04/15 00:14:27;;;;;;;;;;;23.20;48.80;;;;;;686417;28;1283;-90
2022/04/15 00:14:47;;;;;;;;;;;23.20;47.80;;;;;;686283;28;827;-89
2022/04/15 00:15:08;;;;;;;;;;;23.20;47.40;;;;;;685020;28;1249;-86
2022/04/15 00:15:31;;;;;;;;;;;23.20;47.20;;;;;;683811;28;1302;-92
2022/04/15 00:15:52;;;;;;;;;;;23.20;45.60;;;;;;686847;28;878;-87
2022/04/15 00:16:13;;;;;;;;;;;23.20;45.80;;;;;;689421;28;1201;-86
2022/04/15 00:16:34;;;;;;;;;;;23.20;46.60;;;;;;691668;28;925;-87
2022/04/15 00:16:54;;;;;;;;;;;23.20;43.70;;;;;;691558;28;890;-87
2022/04/15 00:17:15;;;;;;;;;;;23.20;42.60;;;;;;691458;28;1229;-89
2022/04/15 00:17:35;;;;;;;;;;;23.20;42.40;;;;;;691585;28;1201;-89
2022/04/15 00:17:56;;;;;;;;;;;23.20;41.90;;;;;;691438;28;744;-90
2022/04/15 00:18:17;;;;;;;;;;;23.20;41.70;;;;;;688983;28;1179;-86
2022/04/15 00:18:37;;;;;;;;;;;23.20;41.20;;;;;;686067;28;1688;-89
2022/04/15 00:18:58;;;;;;;;;;;23.20;41.10;;;;;;686680;28;772;-88
2022/04/15 00:19:19;;;;;;;;;;;23.20;42.90;;;;;;689116;28;791;-88
2022/04/15 00:19:39;;;;;;;;;;;23.20;43.90;;;;;;688914;28;1445;-89
2022/04/15 00:20:00;;;;;;;;;;;23.20;42.30;;;;;;689072;28;1328;-88
2022/04/15 00:20:21;;;;;;;;;;;23.20;43.70;;;;;;689314;28;1224;-86
2022/04/15 00:20:41;;;;;;;;;;;23.20;44.70;;;;;;688950;28;1946;-88
2022/04/15 00:21:04;;;;;;;;;;;23.20;43.10;;;;;;689447;28;878;-89
2022/04/15 00:21:24;;;;;;;;;;;23.20;44.00;;;;;;689024;28;950;-94
2022/04/15 00:21:45;;;;;;;;;;;23.20;42.40;;;;;;689041;28;791;-91
2022/04/15 00:22:05;;;;;;;;;;;23.10;43.50;;;;;;689080;28;741;-92
2022/04/15 00:22:26;;;;;;;;;;;23.10;40.80;;;;;;689318;28;1356;-94
2022/04/15 00:22:47;;;;;;;;;;;23.10;41.20;;;;;;691693;28;977;-93
2022/04/15 00:23:07;;;;;;;;;;;23.10;41.50;;;;;;689242;28;1472;-95
2022/04/15 00:23:28;;;;;;;;;;;23.10;40.30;;;;;;691615;28;1032;-96
2022/04/15 00:23:54;;;;;;;;;;;23.10;39.20;;;;;;691536;28;1225;-96
2022/04/15 00:24:14;;;;;;;;;;;23.20;38.80;;;;;;691531;28;1399;-91
2022/04/15 00:24:35;;;;;;;;;;;23.10;39.10;;;;;;689048;28;1588;-95
2022/04/15 00:24:56;;;;;;;;;;;23.10;38.90;;;;;;688918;28;1325;-95
2022/04/15 00:25:16;;;;;;;;;;;23.10;38.40;;;;;;688871;28;812;-95
2022/04/15 00:25:37;;;;;;;;;;;23.10;39.00;;;;;;688852;28;1382;-93
2022/04/15 00:25:58;;;;;;;;;;;23.10;38.80;;;;;;689081;28;823;-96
2022/04/15 00:26:18;;;;;;;;;;;23.10;38.50;;;;;;686579;28;1304;-94
2022/04/15 00:26:39;;;;;;;;;;;23.10;38.30;;;;;;688921;28;1283;-95
2022/04/15 00:26:59;;;;;;;;;;;23.10;38.60;;;;;;688993;28;1260;-90
2022/04/15 00:27:20;;;;;;;;;;;23.10;38.30;;;;;;689293;28;795;-96
2022/04/15 00:27:40;;;;;;;;;;;23.10;38.30;;;;;;688778;28;1327;-95
2022/04/15 00:28:01;;;;;;;;;;;23.10;38.30;;;;;;689187;28;929;-94
2022/04/15 00:28:23;;;;;;;;;;;23.10;38.70;;;;;;688766;28;1332;-88
2022/04/15 00:28:44;;;;;;;;;;;23.00;40.10;;;;;;689184;28;1292;-96
2022/04/15 00:29:06;;;;;;;;;;;23.10;39.00;;;;;;689617;28;879;-96
2022/04/15 00:29:28;;;;;;;;;;;23.10;38.50;;;;;;687099;28;1115;-96
2022/04/15 00:29:48;;;;;;;;;;;23.00;38.50;;;;;;689611;28;807;-94
2022/04/15 00:30:10;;;;;;;;;;;23.10;38.00;;;;;;691331;28;1394;-96
2022/04/15 00:30:30;;;;;;;;;;;26.50;40.20;;;;;;687561;28;1186;-96
2022/04/15 00:30:51;;;;;;;;;;;23.00;38.30;;;;;;689510;28;1322;-93
2022/04/15 00:31:12;;;;;;;;;;;23.00;38.30;;;;;;689143;28;1323;-91
2022/04/15 00:31:33;;;;;;;;;;;23.00;38.00;;;;;;689203;28;1203;-96
2022/04/15 00:31:54;;;;;;;;;;;23.00;37.80;;;;;;689192;28;1306;-93
2022/04/15 00:32:14;;;;;;;;;;;23.00;37.80;;;;;;689963;28;1457;-96
2022/04/15 00:32:35;;;;;;;;;;;23.00;37.90;;;;;;692763;28;1118;-96
2022/04/15 00:32:56;;;;;;;;;;;23.00;37.80;;;;;;688381;28;1386;-96
2022/04/15 00:33:16;;;;;;;;;;;23.00;38.20;;;;;;688608;28;1328;-96
2022/04/15 00:33:37;;;;;;;;;;;23.00;38.20;;;;;;687004;28;780;-95
2022/04/15 00:33:57;;;;;;;;;;;23.00;37.90;;;;;;688714;28;1301;-94
2022/04/15 00:34:18;;;;;;;;;;;23.00;37.80;;;;;;688838;28;1247;-95
2022/04/15 00:34:38;;;;;;;;;;;23.00;37.80;;;;;;689190;28;1435;-96
2022/04/15 00:34:59;;;;;;;;;;;23.00;37.60;;;;;;689005;28;1217;-94
2022/04/15 00:35:20;;;;;;;;;;;22.90;37.50;;;;;;688804;28;1182;-94
2022/04/15 00:35:41;;;;;;;;;;;23.00;37.40;;;;;;688992;28;890;-95
2022/04/15 00:36:02;;;;;;;;;;;23.00;37.20;;;;;;689346;28;1194;-92
2022/04/15 00:36:22;;;;;;;;;;;22.90;37.50;;;;;;688935;28;1527;-94
2022/04/15 00:36:43;;;;;;;;;;;23.00;37.40;;;;;;689382;28;748;-93
2022/04/15 00:37:04;;;;;;;;;;;23.00;37.40;;;;;;691609;28;1228;-94
2022/04/15 00:37:24;;;;;;;;;;;23.00;37.30;;;;;;688875;28;1334;-94
2022/04/15 00:37:46;;;;;;;;;;;23.00;37.40;;;;;;689367;28;1065;-95
2022/04/15 00:38:06;;;;;;;;;;;22.90;37.30;;;;;;689235;28;1307;-94
2022/04/15 00:38:27;;;;;;;;;;;23.00;37.30;;;;;;686550;28;1227;-94
2022/04/15 00:38:47;;;;;;;;;;;22.90;37.00;;;;;;686438;28;823;-95
2022/04/15 00:39:08;;;;;;;;;;;22.90;37.10;;;;;;686837;28;1374;-94
2022/04/15 00:39:29;;;;;;;;;;;22.90;37.20;;;;;;689247;28;1427;-90
2022/04/15 00:39:50;;;;;;;;;;;22.90;37.00;;;;;;690772;28;1317;-93
2022/04/15 00:40:11;;;;;;;;;;;22.90;37.20;;;;;;691964;28;1460;-86
2022/04/15 00:40:32;;;;;;;;;;;22.90;37.10;;;;;;692013;28;1891;-91
2022/04/15 00:40:53;;;;;;;;;;;22.80;36.90;;;;;;691519;28;1577;-85
2022/04/15 00:41:15;;;;;;;;;;;22.90;36.80;;;;;;690046;28;1300;-90
2022/04/15 00:41:35;;;;;;;;;;;22.90;36.80;;;;;;688657;28;1205;-95
2022/04/15 00:41:56;;;;;;;;;;;22.90;37.00;;;;;;687389;28;1034;-86
2022/04/15 00:42:17;;;;;;;;;;;22.90;37.00;;;;;;690048;28;836;-87
2022/04/15 00:42:37;;;;;;;;;;;22.90;37.10;;;;;;692716;28;1131;-94
2022/04/15 00:42:58;;;;;;;;;;;22.90;37.10;;;;;;695074;28;981;-87
2022/04/15 00:43:19;;;;;;;;;;;22.90;37.00;;;;;;694829;28;993;-85
2022/04/15 00:43:40;;;;;;;;;;;22.90;37.20;;;;;;694916;28;1410;-94
2022/04/15 00:44:00;;;;;;;;;;;22.90;37.00;;;;;;694943;28;1189;-87
2022/04/15 00:44:21;;;;;;;;;;;22.90;37.00;;;;;;694970;28;1064;-91
2022/04/15 00:44:42;;;;;;;;;;;22.90;36.90;;;;;;694933;28;1064;-87
2022/04/15 00:45:02;;;;;;;;;;;22.90;37.00;;;;;;692219;28;1291;-90
2022/04/15 00:45:23;;;;;;;;;;;22.90;36.90;;;;;;692439;28;1302;-93
2022/04/15 00:45:44;;;;;;;;;;;22.90;36.80;;;;;;694629;28;1285;-93
2022/04/15 00:46:08;;;;;;;;;;;22.90;36.70;;;;;;692010;28;1121;-89
2022/04/15 00:46:29;;;;;;;;;;;22.90;36.60;;;;;;691941;28;1199;-93
2022/04/15 00:46:49;;;;;;;;;;;22.90;36.50;;;;;;691831;28;1304;-92
2022/04/15 00:47:24;;;;;;;;;;;22.90;36.70;;;;;;691875;28;1064;-92
2022/04/15 00:47:45;;;;;;;;;;;22.90;36.60;;;;;;691514;28;977;-90
2022/04/15 00:48:07;;;;;;;;;;;22.90;36.50;;;;;;694806;28;1335;-90
2022/04/15 00:48:27;;;;;;;;;;;22.90;36.40;;;;;;691982;28;1180;-92
2022/04/15 00:48:48;;;;;;;;;;;22.80;36.50;;;;;;693984;28;1037;-86
2022/04/15 00:49:09;;;;;;;;;;;22.90;36.50;;;;;;694871;28;1209;-91
2022/04/15 00:49:29;;;;;;;;;;;22.80;36.30;;;;;;694831;28;1265;-89
2022/04/15 00:49:50;;;;;;;;;;;22.80;36.30;;;;;;694946;28;993;-89
2022/04/15 00:50:10;;;;;;;;;;;22.90;36.30;;;;;;694837;28;947;-86
2022/04/15 00:50:32;;;;;;;;;;;22.90;36.30;;;;;;694975;28;1020;-87
2022/04/15 00:50:52;;;;;;;;;;;22.90;36.20;;;;;;694279;28;1207;-87
2022/04/15 00:51:13;;;;;;;;;;;22.90;36.30;;;;;;692571;28;957;-90
2022/04/15 00:51:35;;;;;;;;;;;22.80;36.10;;;;;;694866;28;924;-88
2022/04/15 00:51:57;;;;;;;;;;;22.90;36.10;;;;;;694604;28;1008;-88
2022/04/15 00:52:20;;;;;;;;;;;22.80;36.00;;;;;;694607;28;1080;-86
2022/04/15 00:52:44;;;;;;;;;;;22.80;36.00;;;;;;695204;28;1185;-93
2022/04/15 00:53:11;;;;;;;;;;;22.80;36.00;;;;;;694647;28;1309;-91
2022/04/15 00:53:33;;;;;;;;;;;22.80;35.90;;;;;;694859;28;1013;-88
2022/04/15 00:53:54;;;;;;;;;;;22.80;35.80;;;;;;694607;28;1452;-93
2022/04/15 00:54:15;;;;;;;;;;;22.80;35.60;;;;;;691984;28;1335;-86
2022/04/15 00:54:36;;;;;;;;;;;22.80;35.60;;;;;;692117;28;1328;-86
2022/04/15 00:54:57;;;;;;;;;;;22.80;35.60;;;;;;692007;28;803;-88
2022/04/15 00:55:19;;;;;;;;;;;22.80;35.60;;;;;;691957;28;1013;-92
2022/04/15 00:55:40;;;;;;;;;;;22.80;35.60;;;;;;691128;28;973;-92
2022/04/15 00:56:03;;;;;;;;;;;22.80;35.50;;;;;;690950;28;1525;-93
2022/04/15 00:56:25;;;;;;;;;;;22.80;35.60;;;;;;692092;28;800;-91
2022/04/15 00:56:46;;;;;;;;;;;22.80;35.50;;;;;;689324;28;1328;-93
2022/04/15 00:57:09;;;;;;;;;;;22.80;35.40;;;;;;689935;28;866;-91
2022/04/15 00:57:34;;;;;;;;;;;22.80;35.40;;;;;;687167;28;1220;-93
2022/04/15 00:57:57;;;;;;;;;;;22.80;35.40;;;;;;689037;28;863;-92
2022/04/15 00:58:19;;;;;;;;;;;22.80;35.40;;;;;;689986;28;1157;-92
2022/04/15 00:58:40;;;;;;;;;;;22.80;35.30;;;;;;692340;28;958;-94
2022/04/15 00:59:01;;;;;;;;;;;22.80;35.00;;;;;;692218;28;1418;-93
2022/04/15 00:59:23;;;;;;;;;;;22.80;35.00;;;;;;692482;28;894;-95
2022/04/15 00:59:44;;;;;;;;;;;22.80;35.10;;;;;;693144;28;1461;-93
2022/04/15 01:00:07;;;;;;;;;;;22.80;35.20;;;;;;692877;28;1329;-95
2022/04/15 01:00:28;;;;;;;;;;;22.80;35.20;;;;;;693062;28;1906;-93
2022/04/15 01:00:53;;;;;;;;;;;22.80;35.10;;;;;;691859;28;1118;-95
2022/04/15 01:01:14;;;;;;;;;;;22.80;35.10;;;;;;689174;28;1320;-90
2022/04/15 01:01:35;;;;;;;;;;;22.80;35.10;;;;;;688980;28;1293;-88
2022/04/15 01:01:56;;;;;;;;;;;22.70;34.90;;;;;;689225;28;1209;-91
2022/04/15 01:02:17;;;;;;;;;;;22.80;34.90;;;;;;688871;28;1409;-90
2022/04/15 01:02:38;;;;;;;;;;;22.80;35.00;;;;;;688938;28;1133;-89
2022/04/15 01:03:00;;;;;;;;;;;22.80;35.00;;;;;;686368;28;1228;-90
2022/04/15 01:03:22;;;;;;;;;;;22.80;35.10;;;;;;687099;28;1240;-91
2022/04/15 01:03:43;;;;;;;;;;;22.70;35.10;;;;;;689193;28;1272;-90
2022/04/15 01:04:05;;;;;;;;;;;22.70;35.00;;;;;;686484;28;1385;-90
2022/04/15 01:04:26;;;;;;;;;;;22.70;34.80;;;;;;686034;28;1358;-88
2022/04/15 01:04:48;;;;;;;;;;;22.80;34.80;;;;;;686805;28;1189;-88
2022/04/15 01:05:10;;;;;;;;;;;22.80;34.70;;;;;;688619;28;1240;-86
2022/04/15 01:05:30;;;;;;;;;;;22.70;34.70;;;;;;685998;28;1347;-89
2022/04/15 01:05:56;;;;;;;;;;;22.80;34.60;;;;;;683527;29;1123;-89
2022/04/15 01:06:17;;;;;;;;;;;24.50;35.70;;;;;;683507;29;843;-88
2022/04/15 01:06:38;;;;;;;;;;;22.80;34.90;;;;;;684626;28;997;-89
2022/04/15 01:07:02;;;;;;;;;;;22.80;35.10;;;;;;687331;28;898;-89
2022/04/15 01:07:23;;;;;;;;;;;22.80;35.60;;;;;;687495;28;1083;-89
2022/04/15 01:07:48;;;;;;;;;;;22.70;35.60;;;;;;690248;28;1221;-90
2022/04/15 01:08:08;;;;;;;;;;;22.80;35.10;;;;;;688611;28;1130;-91
2022/04/15 01:08:30;;;;;;;;;;;22.80;35.10;;;;;;688755;28;1305;-91
2022/04/15 01:08:53;;;;;;;;;;;22.80;35.40;;;;;;688732;28;1205;-90
2022/04/15 01:09:16;;;;;;;;;;;22.80;36.00;;;;;;688653;28;1389;-91
2022/04/15 01:09:42;;;;;;;;;;;22.80;35.90;;;;;;688779;28;1187;-91
2022/04/15 01:10:05;;;;;;;;;;;22.80;35.80;;;;;;687992;28;1182;-90
2022/04/15 01:10:26;;;;;;;;;;;22.80;35.60;;;;;;685946;28;1301;-90
2022/04/15 01:10:47;;;;;;;;;;;22.80;35.20;;;;;;686177;28;1181;-91
2022/04/15 01:11:10;;;;;;;;;;;22.80;35.30;;;;;;686162;28;1377;-91
2022/04/15 01:11:33;;;;;;;;;;;22.80;35.20;;;;;;687801;28;1263;-91
2022/04/15 01:11:54;;;;;;;;;;;22.80;35.10;;;;;;690392;28;1349;-91
2022/04/15 01:12:17;;;;;;;;;;;22.80;35.50;;;;;;692578;28;866;-90
2022/04/15 01:12:38;;;;;;;;;;;22.80;34.90;;;;;;694125;28;1493;-90
2022/04/15 01:13:02;;;;;;;;;;;22.80;35.20;;;;;;691479;28;1309;-90
2022/04/15 01:13:24;;;;;;;;;;;22.80;35.10;;;;;;691393;28;1276;-88
2022/04/15 01:13:45;;;;;;;;;;;22.80;34.70;;;;;;693059;28;969;-89
2022/04/15 01:14:08;;;;;;;;;;;22.80;34.40;;;;;;691635;28;1268;-90
2022/04/15 01:14:30;;;;;;;;;;;22.80;34.80;;;;;;691582;28;831;-88
2022/04/15 01:14:51;;;;;;;;;;;23.10;34.70;;;;;;691650;28;1286;-90
2022/04/15 01:15:13;;;;;;;;;;;22.80;35.00;;;;;;692511;28;1188;-90
2022/04/15 01:15:34;;;;;;;;;;;22.80;34.90;;;;;;691686;28;1236;-90
2022/04/15 01:15:55;;;;;;;;;;;22.80;34.50;;;;;;691595;28;1175;-90
2022/04/15 01:16:16;;;;;;;;;;;22.80;34.30;;;;;;688856;28;1311;-89
2022/04/15 01:16:38;;;;;;;;;;;22.80;34.30;;;;;;688944;28;843;-88
2022/04/15 01:16:59;;;;;;;;;;;22.90;34.20;;;;;;686235;28;1280;-87
2022/04/15 01:17:20;;;;;;;;;;;22.80;34.30;;;;;;686823;28;859;-86
2022/04/15 01:17:41;;;;;;;;;;;22.80;34.40;;;;;;686993;28;1373;-88
2022/04/15 01:18:01;;;;;;;;;;;22.80;34.30;;;;;;692083;28;1318;-90
2022/04/15 01:18:22;;;;;;;;;;;22.80;34.10;;;;;;694537;28;1285;-90
2022/04/15 01:18:44;;;;;;;;;;;22.80;34.30;;;;;;694160;28;1205;-90
2022/04/15 01:19:04;;;;;;;;;;;22.80;34.30;;;;;;690551;28;1202;-90
2022/04/15 01:19:25;;;;;;;;;;;22.80;34.40;;;;;;691338;28;1298;-90
2022/04/15 01:19:45;;;;;;;;;;;22.80;34.20;;;;;;691453;28;1225;-89
2022/04/15 01:20:08;;;;;;;;;;;22.80;34.30;;;;;;691410;28;1225;-83
2022/04/15 01:20:28;;;;;;;;;;;22.80;34.00;;;;;;690842;28;1906;-84
2022/04/15 01:20:50;;;;;;;;;;;22.80;33.90;;;;;;691004;28;1190;-89
2022/04/15 01:21:12;;;;;;;;;;;22.80;34.00;;;;;;689042;28;1467;-91
2022/04/15 01:21:34;;;;;;;;;;;22.80;33.80;;;;;;688662;28;1307;-88
2022/04/15 01:21:55;;;;;;;;;;;22.80;33.60;;;;;;689778;28;819;-85
2022/04/15 01:22:17;;;;;;;;;;;22.80;33.60;;;;;;691134;28;1648;-86
2022/04/15 01:22:43;;;;;;;;;;;22.90;34.80;;;;;;688070;28;1498;-89
2022/04/15 01:23:31;;;;;;;;;;;22.90;33.90;;;;;;690464;28;819;-90
2022/04/15 01:23:54;;;;;;;;;;;22.90;33.80;;;;;;694164;28;803;-82
2022/04/15 01:24:14;;;;;;;;;;;22.90;33.30;;;;;;693423;28;1453;-85
2022/04/15 01:24:38;;;;;;;;;;;22.80;33.30;;;;;;694418;28;925;-87
2022/04/15 01:24:59;;;;;;;;;;;22.80;33.30;;;;;;694202;28;894;-89
2022/04/15 01:25:20;;;;;;;;;;;22.80;33.30;;;;;;694268;28;966;-90
2022/04/15 01:25:41;;;;;;;;;;;22.90;33.10;;;;;;693860;28;1441;-82
2022/04/15 01:26:01;;;;;;;;;;;22.90;33.00;;;;;;694152;28;1273;-86
2022/04/15 01:26:22;;;;;;;;;;;22.80;33.30;;;;;;694125;28;877;-87
2022/04/15 01:26:43;;;;;;;;;;;22.80;33.40;;;;;;694349;28;1224;-90
2022/04/15 01:27:06;;;;;;;;;;;22.90;33.30;;;;;;694188;28;1274;-84
2022/04/15 01:27:30;;;;;;;;;;;22.90;33.30;;;;;;691466;28;1362;-96
2022/04/15 01:27:51;;;;;;;;;;;22.90;33.20;;;;;;691373;28;881;-84
2022/04/15 01:28:20;;;;;;;;;;;22.90;32.80;;;;;;691189;28;1085;-85
2022/04/15 01:28:44;;;;;;;;;;;22.90;32.80;;;;;;691125;28;1394;-88
2022/04/15 01:29:04;;;;;;;;;;;22.80;32.60;;;;;;691420;28;1500;-90
2022/04/15 01:29:26;;;;;;;;;;;22.80;32.90;;;;;;693824;28;799;-88
2022/04/15 01:29:49;;;;;;;;;;;22.90;32.80;;;;;;694300;28;1373;-94
2022/04/15 01:30:11;;;;;;;;;;;22.80;32.90;;;;;;689167;28;1368;-85
2022/04/15 01:30:32;;;;;;;;;;;22.80;32.60;;;;;;691126;28;1189;-86
2022/04/15 01:30:54;;;;;;;;;;;22.80;32.70;;;;;;691399;28;1277;-91
2022/04/15 01:31:15;;;;;;;;;;;22.90;32.60;;;;;;690605;28;1434;-89
2022/04/15 01:31:36;;;;;;;;;;;22.90;32.50;;;;;;690627;28;799;-85
2022/04/15 01:31:58;;;;;;;;;;;22.80;32.30;;;;;;686790;28;1336;-88
2022/04/15 01:32:19;;;;;;;;;;;22.90;32.50;;;;;;689233;28;1321;-88
2022/04/15 01:32:40;;;;;;;;;;;22.90;32.70;;;;;;689322;28;1280;-85
2022/04/15 01:33:02;;;;;;;;;;;22.80;32.60;;;;;;688635;28;1098;-88
2022/04/15 01:33:23;;;;;;;;;;;22.90;32.20;;;;;;688525;28;1233;-87
2022/04/15 01:33:44;;;;;;;;;;;22.90;32.20;;;;;;689395;28;1356;-88
2022/04/15 01:34:04;;;;;;;;;;;22.90;32.40;;;;;;691389;28;1390;-85
2022/04/15 01:34:25;;;;;;;;;;;22.90;32.50;;;;;;691901;28;1305;-85
2022/04/15 01:34:45;;;;;;;;;;;22.80;32.40;;;;;;694184;28;1374;-86
2022/04/15 01:35:09;;;;;;;;;;;22.90;32.60;;;;;;691548;28;1229;-89
2022/04/15 01:35:30;;;;;;;;;;;22.90;32.40;;;;;;688969;28;1253;-89
2022/04/15 01:35:51;;;;;;;;;;;22.90;32.30;;;;;;686080;28;1470;-82
2022/04/15 01:36:12;;;;;;;;;;;22.90;32.30;;;;;;683889;28;1308;-85
2022/04/15 01:36:33;;;;;;;;;;;22.80;32.10;;;;;;686083;28;834;-86
2022/04/15 01:36:53;;;;;;;;;;;22.80;32.00;;;;;;687031;28;882;-85
2022/04/15 01:37:15;;;;;;;;;;;22.80;32.10;;;;;;686348;28;1206;-85
2022/04/15 01:37:37;;;;;;;;;;;22.80;32.10;;;;;;689508;28;1303;-82
2022/04/15 01:37:59;;;;;;;;;;;22.90;32.20;;;;;;689268;28;1495;-86
2022/04/15 01:38:20;;;;;;;;;;;22.80;32.00;;;;;;691127;28;1411;-84
2022/04/15 01:38:42;;;;;;;;;;;22.90;32.00;;;;;;691179;28;770;-83
2022/04/15 01:39:03;;;;;;;;;;;22.80;31.90;;;;;;691296;28;1240;-84
2022/04/15 01:39:24;;;;;;;;;;;22.80;31.90;;;;;;688413;28;1566;-88
2022/04/15 01:39:45;;;;;;;;;;;22.80;31.90;;;;;;688486;28;1284;-85
2022/04/15 01:40:10;;;;;;;;;;;22.80;31.80;;;;;;685460;28;1206;-88
2022/04/15 01:40:34;;;;;;;;;;;22.90;31.90;;;;;;682996;28;1875;-95
2022/04/15 01:40:54;;;;;;;;;;;22.90;32.00;;;;;;687202;28;1286;-88
2022/04/15 01:41:15;;;;;;;;;;;22.80;31.90;;;;;;686763;28;1465;-85
2022/04/15 01:41:38;;;;;;;;;;;22.80;31.80;;;;;;688624;28;1371;-87
2022/04/15 01:41:59;;;;;;;;;;;22.80;31.80;;;;;;687654;28;1395;-86
2022/04/15 01:42:22;;;;;;;;;;;22.80;31.70;;;;;;685849;28;1427;-90
2022/04/15 01:42:44;;;;;;;;;;;22.80;31.60;;;;;;686856;28;1235;-89
2022/04/15 01:43:06;;;;;;;;;;;22.80;31.50;;;;;;689583;28;1369;-83
2022/04/15 01:43:28;;;;;;;;;;;22.80;31.50;;;;;;687719;28;1534;-83
2022/04/15 01:43:49;;;;;;;;;;;22.80;31.50;;;;;;688298;28;1205;-84
2022/04/15 01:44:15;;;;;;;;;;;22.80;31.50;;;;;;686792;28;1291;-89
2022/04/15 01:44:36;;;;;;;;;;;22.80;31.50;;;;;;685494;28;1236;-87
2022/04/15 01:44:56;;;;;;;;;;;22.70;31.40;;;;;;685339;28;1209;-86
2022/04/15 01:45:17;;;;;;;;;;;22.80;31.40;;;;;;686743;28;1337;-88
2022/04/15 01:45:40;;;;;;;;;;;22.80;31.40;;;;;;688393;28;1287;-86
2022/04/15 01:46:01;;;;;;;;;;;22.80;31.30;;;;;;686830;28;1242;-88
2022/04/15 01:46:22;;;;;;;;;;;22.80;31.30;;;;;;689143;28;791;-91
2022/04/15 01:46:43;;;;;;;;;;;22.80;31.40;;;;;;690203;28;1532;-84
2022/04/15 01:47:04;;;;;;;;;;;22.80;31.40;;;;;;690129;28;1261;-85
2022/04/15 01:47:24;;;;;;;;;;;22.80;31.30;;;;;;693770;28;1389;-79
2022/04/15 01:47:45;;;;;;;;;;;22.80;31.30;;;;;;693598;28;1290;-85
2022/04/15 01:48:06;;;;;;;;;;;22.80;31.20;;;;;;690702;28;1308;-83
2022/04/15 01:48:26;;;;;;;;;;;22.80;31.20;;;;;;691060;28;1255;-83
2022/04/15 01:48:47;;;;;;;;;;;22.70;31.10;;;;;;690930;28;1397;-82
2022/04/15 01:49:07;;;;;;;;;;;22.80;31.10;;;;;;691060;28;1216;-84
2022/04/15 01:49:28;;;;;;;;;;;22.80;31.10;;;;;;691333;28;1044;-84
2022/04/15 01:49:49;;;;;;;;;;;22.70;31.00;;;;;;690980;28;1221;-89
2022/04/15 01:50:10;;;;;;;;;;;22.80;30.90;;;;;;688476;28;1235;-83
2022/04/15 01:50:31;;;;;;;;;;;22.70;31.00;;;;;;691318;28;878;-84
2022/04/15 01:50:52;;;;;;;;;;;22.80;31.00;;;;;;687795;28;1383;-85
2022/04/15 01:51:12;;;;;;;;;;;22.80;31.10;;;;;;688584;28;1196;-89
2022/04/15 01:51:34;;;;;;;;;;;22.70;31.00;;;;;;688908;28;900;-82
2022/04/15 01:51:55;;;;;;;;;;;22.70;30.90;;;;;;686206;28;1372;-86
2022/04/15 01:52:16;;;;;;;;;;;22.70;30.90;;;;;;689632;28;1212;-87
2022/04/15 01:52:42;;;;;;;;;;;22.70;30.90;;;;;;691504;28;1252;-84
2022/04/15 01:53:03;;;;;;;;;;;22.80;31.00;;;;;;691353;28;1084;-84
2022/04/15 01:53:23;;;;;;;;;;;22.80;31.00;;;;;;690791;28;1448;-81
2022/04/15 01:53:44;;;;;;;;;;;22.70;31.00;;;;;;688271;28;1291;-88
2022/04/15 01:54:05;;;;;;;;;;;22.70;31.00;;;;;;688532;28;930;-84
2022/04/15 01:54:29;;;;;;;;;;;22.70;31.00;;;;;;686777;28;1266;-86
2022/04/15 01:54:50;;;;;;;;;;;22.70;31.00;;;;;;687720;28;1280;-86
2022/04/15 01:55:13;;;;;;;;;;;22.70;30.90;;;;;;685664;28;1167;-88
2022/04/15 01:55:33;;;;;;;;;;;22.70;31.90;;;;;;687001;28;1300;-87
2022/04/15 01:55:55;;;;;;;;;;;22.70;30.90;;;;;;684196;28;1283;-87
2022/04/15 01:56:15;;;;;;;;;;;22.70;30.90;;;;;;684240;28;1293;-89
2022/04/15 01:56:45;;;;;;;;;;;22.70;30.80;;;;;;689227;28;1205;-84
2022/04/15 01:57:05;;;;;;;;;;;22.70;30.80;;;;;;688557;28;1425;-87
2022/04/15 01:57:28;;;;;;;;;;;22.70;30.40;;;;;;685958;28;1341;-83
2022/04/15 01:57:48;;;;;;;;;;;22.70;30.50;;;;;;685686;28;1188;-86
2022/04/15 01:58:10;;;;;;;;;;;22.70;30.70;;;;;;687711;28;1145;-84
2022/04/15 01:58:30;;;;;;;;;;;22.70;30.80;;;;;;690096;28;1271;-87
2022/04/15 01:58:51;;;;;;;;;;;22.70;30.70;;;;;;686198;28;1492;-86
2022/04/15 01:59:11;;;;;;;;;;;22.70;30.70;;;;;;690941;28;1085;-84
2022/04/15 01:59:32;;;;;;;;;;;22.70;30.50;;;;;;691437;28;1266;-87
2022/04/15 01:59:52;;;;;;;;;;;22.70;30.30;;;;;;690442;28;1372;-84
2022/04/15 02:00:13;;;;;;;;;;;22.70;30.50;;;;;;688427;28;1177;-82
2022/04/15 02:00:54;;;;;;;;;;;22.70;30.60;;;;;;688449;28;1918;-89
2022/04/15 02:01:15;;;;;;;;;;;22.70;30.60;;;;;;690961;28;1360;-86
2022/04/15 02:01:36;;;;;;;;;;;22.70;30.60;;;;;;690457;28;1479;-84
2022/04/15 02:01:56;;;;;;;;;;;22.70;30.60;;;;;;691654;28;1266;-88
2022/04/15 02:02:17;;;;;;;;;;;22.70;30.60;;;;;;691208;28;1401;-82
2022/04/15 02:02:37;;;;;;;;;;;22.70;30.60;;;;;;688468;28;1184;-85
2022/04/15 02:02:58;;;;;;;;;;;22.70;30.60;;;;;;688888;28;1312;-86
2022/04/15 02:03:19;;;;;;;;;;;22.70;30.60;;;;;;690748;28;1352;-85
2022/04/15 02:03:39;;;;;;;;;;;22.70;30.50;;;;;;685741;28;1181;-84
2022/04/15 02:04:00;;;;;;;;;;;22.70;30.50;;;;;;688455;28;1211;-84
2022/04/15 02:04:26;;;;;;;;;;;22.70;30.60;;;;;;688716;28;1130;-84
2022/04/15 02:04:47;;;;;;;;;;;22.60;30.50;;;;;;689495;28;1274;-86
2022/04/15 02:05:08;;;;;;;;;;;22.60;30.30;;;;;;692177;28;1185;-87
2022/04/15 02:05:28;;;;;;;;;;;22.70;30.60;;;;;;694000;28;1388;-86
2022/04/15 02:05:49;;;;;;;;;;;22.70;30.40;;;;;;692822;28;1196;-85
2022/04/15 02:06:10;;;;;;;;;;;22.60;30.50;;;;;;693724;28;1236;-87
2022/04/15 02:06:30;;;;;;;;;;;22.70;30.70;;;;;;691524;28;1462;-86
2022/04/15 02:06:51;;;;;;;;;;;22.60;30.80;;;;;;690752;28;1239;-82
2022/04/15 02:07:11;;;;;;;;;;;22.60;30.80;;;;;;685749;28;1068;-89
2022/04/15 02:07:32;;;;;;;;;;;22.60;30.90;;;;;;683479;28;1215;-90
2022/04/15 02:07:56;;;;;;;;;;;22.60;31.10;;;;;;683035;29;1366;-90
2022/04/15 02:08:16;;;;;;;;;;;22.70;31.00;;;;;;683148;28;1350;-89
2022/04/15 02:08:37;;;;;;;;;;;22.60;30.90;;;;;;684110;28;1336;-91
2022/04/15 02:08:58;;;;;;;;;;;22.70;31.10;;;;;;688606;28;1224;-86
2022/04/15 02:09:18;;;;;;;;;;;22.70;31.00;;;;;;691835;28;1192;-86
2022/04/15 02:09:39;;;;;;;;;;;22.70;31.10;;;;;;691251;28;1283;-87
2022/04/15 02:10:00;;;;;;;;;;;22.60;31.00;;;;;;691413;28;1215;-87